To NAV CANADA Home Page Login to a new session Search on AWWS site Feedback and Comments Disclaimer Vers la page française équivalente Tips FAQ What's new on the site To the Forecasts and Observations / NOTAM section To "File a Flight Plan" website Publications and other links Update of the User's profile FIC Telephone Numbers My Weather Data Folder Route Weather Data Regional Weather Data Local Weather Data To the Forecasts and Observations / NOTAM section
Request Generated 03/30/2015 at 20:00:07 UTC . Weather information available at that time is displayed.

METAR/TAF

SUDBURY/ON    

METAR CYSB 301900Z 31013G19KT 20SM -SG BKN026 OVC110 01/M04 A2967 RMK
SC5AC3 VIS LWR NW SLP064=
METAR CYSB 301800Z 34015G21KT 15SM BKN030 BKN110 02/M05 A2965 RMK
SC5AC2 VIS LWR NW SLP056=
METAR CYSB 301700Z 33011G24KT 15SM BKN021 BKN110 02/M05 A2963 RMK
SC5AC2 PRESRR SLP047=

TAF CYSB 301938Z 3020/3108 34010G20KT P6SM BKN025 TEMPO 3020/3024
P6SM -SHGS BKN020
FM310000 32008KT P6SM FEW030
BECMG 3106/3108 02005KT
RMK NXT FCST BY 310200Z=
Your time UTC time
Weather data provided by Environment Canada and NAV CANADA